PWSweather.com
Personal Weather Stations
Station Observations

MakarauRodneyNZ

Lat: -36.52421, Lon: 174.47572

Elevation: 606

Station Type: Davis VP2

http://kaiparaweather.dynu.net/index.php

High Low Average
Temperature 76.5°F24.7°C 60.8°F16.0°C 66.0°F18.9°C
Dew Point 66.8°F19.3°C 59.3°F15.2°C 62.3°F16.8°C
Winds 10.4 mph 16.7 kmh Calm Calm 3.0 mph NNE4.8 kmh NNE
Wind Gusts 18.4 mph29.6 kmh -- 5.0 mph8.0 kmh
Humidity 96% 69% 88%
Pressure 30.16 in1021.3 mb 30.08 in1018.6 mb -
Precipitation 0.09 in2.3 mm - -
Hour Temp Dew Point Humidity Winds Wind Gusts Pressure Precip Precip Rate Daily Precip Total
12:00 AM 61.5°F16.4°C 59.5°F15.3°C 93% 2.3 mph NNE3.7 kmh NNE 3.5 mph5.6 kmh 30.11 in1019.6 mb - 0.00 in0.0 mm 0.00 in0.0 mm
12:10 AM 61.3°F16.3°C 59.3°F15.2°C 93% 2.3 mph NNE3.7 kmh NNE 3.5 mph5.6 kmh 30.11 in1019.6 mb - 0.00 in0.0 mm 0.00 in0.0 mm
12:20 AM 61.3°F16.3°C 59.3°F15.2°C 93% 1.2 mph NNE1.9 kmh NNE 3.5 mph5.6 kmh 30.11 in1019.6 mb - 0.00 in0.0 mm 0.00 in0.0 mm
12:30 AM 61.3°F16.3°C 59.6°F15.3°C 94% 1.2 mph NE1.9 kmh NE 2.3 mph3.7 kmh 30.11 in1019.6 mb - 0.00 in0.0 mm 0.00 in0.0 mm
12:40 AM 61.2°F16.2°C 59.5°F15.3°C 94% 1.2 mph NNE1.9 kmh NNE 3.5 mph5.6 kmh 30.11 in1019.6 mb - 0.00 in0.0 mm 0.00 in0.0 mm
12:50 AM 61.2°F16.2°C 59.5°F15.3°C 94% Calm Calm 1.2 mph1.9 kmh 30.10 in1019.3 mb - 0.00 in0.0 mm 0.00 in0.0 mm
01:00 AM 61.2°F16.2°C 59.5°F15.3°C 94% 1.2 mph NNE1.9 kmh NNE 3.5 mph5.6 kmh 30.10 in1019.3 mb - 0.00 in0.0 mm 0.00 in0.0 mm
01:10 AM 61.1°F16.2°C 59.4°F15.2°C 94% Calm Calm 3.5 mph5.6 kmh 30.10 in1019.3 mb - 0.00 in0.0 mm 0.00 in0.0 mm
01:20 AM 61.1°F16.2°C 59.4°F15.2°C 94% 1.2 mph NNE1.9 kmh NNE 3.5 mph5.6 kmh 30.10 in1019.3 mb - 0.00 in0.0 mm 0.00 in0.0 mm
01:30 AM 61.2°F16.2°C 59.5°F15.3°C 94% 2.3 mph NNE3.7 kmh NNE 3.5 mph5.6 kmh 30.10 in1019.3 mb - 0.00 in0.0 mm 0.00 in0.0 mm
01:40 AM 61.1°F16.2°C 59.4°F15.2°C 94% 3.5 mph NNE5.6 kmh NNE 4.6 mph7.4 kmh 30.10 in1019.3 mb - 0.00 in0.0 mm 0.00 in0.0 mm
01:50 AM 61.0°F16.1°C 59.3°F15.2°C 94% 1.2 mph NNE1.9 kmh NNE 1.2 mph1.9 kmh 30.10 in1019.3 mb - 0.00 in0.0 mm 0.00 in0.0 mm
02:00 AM 61.1°F16.2°C 59.4°F15.2°C 94% 2.3 mph NNE3.7 kmh NNE 4.6 mph7.4 kmh 30.10 in1019.3 mb - 0.00 in0.0 mm 0.00 in0.0 mm
02:10 AM 61.1°F16.2°C 59.4°F15.2°C 94% 2.3 mph NNE3.7 kmh NNE 4.6 mph7.4 kmh 30.10 in1019.3 mb - 0.00 in0.0 mm 0.00 in0.0 mm
02:20 AM 61.0°F16.1°C 59.3°F15.2°C 94% 2.3 mph NNE3.7 kmh NNE 4.6 mph7.4 kmh 30.09 in1019.0 mb - 0.00 in0.0 mm 0.00 in0.0 mm
02:30 AM 60.9°F16.1°C 59.5°F15.3°C 95% 2.3 mph NNE3.7 kmh NNE 3.5 mph5.6 kmh 30.09 in1019.0 mb - 0.00 in0.0 mm 0.00 in0.0 mm
02:40 AM 60.9°F16.1°C 59.5°F15.3°C 95% 1.2 mph NNE1.9 kmh NNE 3.5 mph5.6 kmh 30.09 in1019.0 mb - 0.00 in0.0 mm 0.00 in0.0 mm
02:50 AM 60.8°F16.0°C 59.4°F15.2°C 95% 2.3 mph NNE3.7 kmh NNE 4.6 mph7.4 kmh 30.09 in1019.0 mb - 0.00 in0.0 mm 0.00 in0.0 mm
03:00 AM 60.8°F16.0°C 59.4°F15.2°C 95% 2.3 mph NNE3.7 kmh NNE 3.5 mph5.6 kmh 30.09 in1019.0 mb - 0.00 in0.0 mm 0.00 in0.0 mm
03:10 AM 60.9°F16.1°C 59.5°F15.3°C 95% 3.5 mph NNE5.6 kmh NNE 6.9 mph11.1 kmh 30.09 in1019.0 mb - 0.00 in0.0 mm 0.00 in0.0 mm
03:20 AM 61.0°F16.1°C 59.6°F15.3°C 95% 2.3 mph NNE3.7 kmh NNE 4.6 mph7.4 kmh 30.09 in1019.0 mb - 0.00 in0.0 mm 0.00 in0.0 mm
03:30 AM 61.0°F16.1°C 59.3°F15.2°C 94% 3.5 mph NNE5.6 kmh NNE 3.5 mph5.6 kmh 30.09 in1019.0 mb - 0.00 in0.0 mm 0.00 in0.0 mm
03:40 AM 61.1°F16.2°C 59.4°F15.2°C 94% 2.3 mph N3.7 kmh N 3.5 mph5.6 kmh 30.09 in1019.0 mb - 0.00 in0.0 mm 0.00 in0.0 mm
03:50 AM 61.2°F16.2°C 59.4°F15.2°C 94% 2.3 mph NNE3.7 kmh NNE 3.5 mph5.6 kmh 30.09 in1019.0 mb - 0.00 in0.0 mm 0.00 in0.0 mm
04:00 AM 61.2°F16.2°C 59.5°F15.3°C 94% 1.2 mph NNE1.9 kmh NNE 3.5 mph5.6 kmh 30.09 in1019.0 mb - 0.00 in0.0 mm 0.00 in0.0 mm
04:10 AM 61.3°F16.3°C 59.6°F15.3°C 94% 3.5 mph NNE5.6 kmh NNE 3.5 mph5.6 kmh 30.09 in1019.0 mb - 0.01 in0.3 mm 0.01 in0.3 mm
04:20 AM 61.4°F16.3°C 59.6°F15.3°C 94% 3.5 mph NNE5.6 kmh NNE 3.5 mph5.6 kmh 30.09 in1019.0 mb - 0.00 in0.0 mm 0.01 in0.3 mm
04:30 AM 61.4°F16.3°C 59.4°F15.2°C 93% 1.2 mph NNE1.9 kmh NNE 3.5 mph5.6 kmh 30.08 in1018.6 mb - 0.00 in0.0 mm 0.01 in0.3 mm
04:40 AM 61.4°F16.3°C 59.3°F15.2°C 93% 3.5 mph NNE5.6 kmh NNE 3.5 mph5.6 kmh 30.08 in1018.6 mb - 0.00 in0.0 mm 0.01 in0.3 mm
04:50 AM 61.4°F16.3°C 59.4°F15.2°C 93% 2.3 mph NNE3.7 kmh NNE 3.5 mph5.6 kmh 30.08 in1018.6 mb - 0.00 in0.0 mm 0.01 in0.3 mm
05:00 AM 61.5°F16.4°C 59.5°F15.3°C 93% 4.6 mph NE7.4 kmh NE 3.5 mph5.6 kmh 30.08 in1018.6 mb - 0.00 in0.0 mm 0.01 in0.3 mm
05:10 AM 61.7°F16.5°C 59.7°F15.4°C 93% 2.3 mph NNE3.7 kmh NNE 3.5 mph5.6 kmh 30.08 in1018.6 mb - 0.00 in0.0 mm 0.01 in0.3 mm
05:20 AM 61.9°F16.6°C 59.9°F15.5°C 93% 4.6 mph NNE7.4 kmh NNE 6.9 mph11.1 kmh 30.08 in1018.6 mb - 0.00 in0.0 mm 0.01 in0.3 mm
05:30 AM 61.9°F16.6°C 59.9°F15.5°C 93% 2.3 mph NNE3.7 kmh NNE 3.5 mph5.6 kmh 30.08 in1018.6 mb - 0.00 in0.0 mm 0.01 in0.3 mm
05:40 AM 62.0°F16.7°C 60.0°F15.6°C 93% 3.5 mph NNE5.6 kmh NNE 4.6 mph7.4 kmh 30.08 in1018.6 mb - 0.00 in0.0 mm 0.01 in0.3 mm
05:50 AM 62.0°F16.7°C 60.0°F15.6°C 93% 4.6 mph NNE7.4 kmh NNE 4.6 mph7.4 kmh 30.08 in1018.6 mb - 0.00 in0.0 mm 0.01 in0.3 mm
06:00 AM 61.9°F16.6°C 59.9°F15.5°C 93% 3.5 mph NNE5.6 kmh NNE 4.6 mph7.4 kmh 30.08 in1018.6 mb - 0.00 in0.0 mm 0.01 in0.3 mm
06:10 AM 61.8°F16.6°C 59.8°F15.4°C 93% 2.3 mph NNE3.7 kmh NNE 3.5 mph5.6 kmh 30.09 in1019.0 mb - 0.00 in0.0 mm 0.01 in0.3 mm
06:20 AM 61.6°F16.4°C 59.6°F15.3°C 93% 3.5 mph NNE5.6 kmh NNE 4.6 mph7.4 kmh 30.09 in1019.0 mb - 0.00 in0.0 mm 0.01 in0.3 mm
06:30 AM 61.5°F16.4°C 59.5°F15.3°C 93% 3.5 mph NNE5.6 kmh NNE 4.6 mph7.4 kmh 30.09 in1019.0 mb - 0.00 in0.0 mm 0.01 in0.3 mm
06:40 AM 61.4°F16.3°C 59.4°F15.2°C 93% 2.3 mph NNE3.7 kmh NNE 3.5 mph5.6 kmh 30.09 in1019.0 mb - 0.00 in0.0 mm 0.01 in0.3 mm
06:50 AM 61.2°F16.2°C 59.5°F15.3°C 94% 3.5 mph NNE5.6 kmh NNE 4.6 mph7.4 kmh 30.09 in1019.0 mb - 0.00 in0.0 mm 0.01 in0.3 mm
07:00 AM 61.2°F16.2°C 59.5°F15.3°C 94% 2.3 mph NNE3.7 kmh NNE 4.6 mph7.4 kmh 30.10 in1019.3 mb - 0.00 in0.0 mm 0.01 in0.3 mm
07:10 AM 61.3°F16.3°C 59.6°F15.3°C 94% 3.5 mph NNE5.6 kmh NNE 3.5 mph5.6 kmh 30.10 in1019.3 mb - 0.00 in0.0 mm 0.01 in0.3 mm
07:20 AM 61.5°F16.4°C 59.8°F15.4°C 94% 2.3 mph NNE3.7 kmh NNE 4.6 mph7.4 kmh 30.10 in1019.3 mb - 0.00 in0.0 mm 0.01 in0.3 mm
07:30 AM 61.7°F16.5°C 59.9°F15.5°C 94% 3.5 mph NNE5.6 kmh NNE 6.9 mph11.1 kmh 30.10 in1019.3 mb - 0.00 in0.0 mm 0.01 in0.3 mm
07:40 AM 62.1°F16.7°C 60.7°F15.9°C 95% 4.6 mph NNE7.4 kmh NNE 6.9 mph11.1 kmh 30.10 in1019.3 mb - 0.00 in0.0 mm 0.01 in0.3 mm
07:50 AM 62.5°F16.9°C 60.7°F15.9°C 94% 4.6 mph NNE7.4 kmh NNE 8.1 mph13.0 kmh 30.10 in1019.3 mb - 0.00 in0.0 mm 0.01 in0.3 mm
08:00 AM 63.1°F17.3°C 61.3°F16.3°C 94% 4.6 mph NNE7.4 kmh NNE 6.9 mph11.1 kmh 30.10 in1019.3 mb - 0.00 in0.0 mm 0.01 in0.3 mm
08:10 AM 63.8°F17.7°C 61.7°F16.5°C 93% 3.5 mph NNE5.6 kmh NNE 5.8 mph9.3 kmh 30.11 in1019.6 mb - 0.00 in0.0 mm 0.01 in0.3 mm
08:20 AM 65.0°F18.3°C 62.6°F17.0°C 92% 2.3 mph NNE3.7 kmh NNE 3.5 mph5.6 kmh 30.11 in1019.6 mb - 0.00 in0.0 mm 0.01 in0.3 mm
08:30 AM 66.2°F19.0°C 63.2°F17.3°C 90% 3.5 mph NNE5.6 kmh NNE 5.8 mph9.3 kmh 30.11 in1019.6 mb - 0.00 in0.0 mm 0.01 in0.3 mm
08:40 AM 67.2°F19.6°C 63.2°F17.3°C 87% 4.6 mph NNE7.4 kmh NNE 10.4 mph16.7 kmh 30.11 in1019.6 mb - 0.00 in0.0 mm 0.01 in0.3 mm
08:50 AM 68.3°F20.2°C 63.9°F17.7°C 86% 4.6 mph NNE7.4 kmh NNE 6.9 mph11.1 kmh 30.11 in1019.6 mb - 0.00 in0.0 mm 0.01 in0.3 mm
09:00 AM 69.6°F20.9°C 64.5°F18.1°C 84% 6.9 mph NNE11.1 kmh NNE 9.2 mph14.8 kmh 30.11 in1019.6 mb - 0.00 in0.0 mm 0.01 in0.3 mm
09:10 AM 70.1°F21.2°C 64.0°F17.8°C 81% 6.9 mph NNE11.1 kmh NNE 15.0 mph24.1 kmh 30.11 in1019.6 mb - 0.00 in0.0 mm 0.01 in0.3 mm
09:20 AM 70.1°F21.2°C 64.3°F17.9°C 82% 6.9 mph N11.1 kmh N 11.5 mph18.5 kmh 30.11 in1019.6 mb - 0.00 in0.0 mm 0.01 in0.3 mm
09:30 AM 71.1°F21.7°C 64.9°F18.3°C 81% 5.8 mph N9.3 kmh N 9.2 mph14.8 kmh 30.11 in1019.6 mb - 0.00 in0.0 mm 0.01 in0.3 mm
09:40 AM 71.7°F22.1°C 65.2°F18.4°C 80% 2.3 mph NNE3.7 kmh NNE 3.5 mph5.6 kmh 30.12 in1020.0 mb - 0.00 in0.0 mm 0.01 in0.3 mm
09:50 AM 73.4°F23.0°C 65.8°F18.8°C 77% 4.6 mph NNE7.4 kmh NNE 4.6 mph7.4 kmh 30.11 in1019.6 mb - 0.00 in0.0 mm 0.01 in0.3 mm
10:00 AM 74.5°F23.6°C 66.5°F19.2°C 76% 1.2 mph NE1.9 kmh NE 5.8 mph9.3 kmh 30.12 in1020.0 mb - 0.00 in0.0 mm 0.01 in0.3 mm
10:10 AM 74.8°F23.8°C 65.5°F18.6°C 73% 3.5 mph NNE5.6 kmh NNE 5.8 mph9.3 kmh 30.11 in1019.6 mb - 0.00 in0.0 mm 0.01 in0.3 mm
10:20 AM 74.9°F23.8°C 64.0°F17.8°C 69% 8.1 mph NNE13.0 kmh NNE 11.5 mph18.5 kmh 30.11 in1019.6 mb - 0.00 in0.0 mm 0.01 in0.3 mm
10:30 AM 75.1°F23.9°C 64.3°F17.9°C 69% 8.1 mph NNE13.0 kmh NNE 11.5 mph18.5 kmh 30.11 in1019.6 mb - 0.00 in0.0 mm 0.01 in0.3 mm
10:40 AM 75.3°F24.1°C 65.7°F18.7°C 72% 8.1 mph NNE13.0 kmh NNE 11.5 mph18.5 kmh 30.11 in1019.6 mb - 0.00 in0.0 mm 0.01 in0.3 mm
10:50 AM 75.1°F23.9°C 65.4°F18.6°C 72% 6.9 mph NNE11.1 kmh NNE 10.4 mph16.7 kmh 30.11 in1019.6 mb - 0.00 in0.0 mm 0.01 in0.3 mm
11:00 AM 75.3°F24.1°C 66.1°F18.9°C 73% Calm Calm 3.5 mph5.6 kmh 30.11 in1019.6 mb - 0.00 in0.0 mm 0.01 in0.3 mm
11:10 AM 76.2°F24.6°C 65.3°F18.5°C 69% 10.4 mph NNE16.7 kmh NNE 18.4 mph29.6 kmh 30.10 in1019.3 mb - 0.00 in0.0 mm 0.01 in0.3 mm
11:20 AM 73.2°F22.9°C 63.6°F17.6°C 72% 8.1 mph NNE13.0 kmh NNE 13.8 mph22.2 kmh 30.11 in1019.6 mb - 0.00 in0.0 mm 0.01 in0.3 mm
11:30 AM 74.2°F23.4°C 65.7°F18.7°C 75% 6.9 mph NNE11.1 kmh NNE 8.1 mph13.0 kmh 30.10 in1019.3 mb - 0.00 in0.0 mm 0.01 in0.3 mm
11:40 AM 76.5°F24.7°C 66.8°F19.3°C 72% 4.6 mph NNE7.4 kmh NNE 12.7 mph20.4 kmh 30.10 in1019.3 mb - 0.00 in0.0 mm 0.01 in0.3 mm
11:50 AM 76.1°F24.5°C 66.0°F18.9°C 71% Calm Calm 2.3 mph3.7 kmh 30.10 in1019.3 mb - 0.00 in0.0 mm 0.01 in0.3 mm
12:00 PM 75.7°F24.3°C 66.0°F18.9°C 72% 1.2 mph NNE1.9 kmh NNE 2.3 mph3.7 kmh 30.10 in1019.3 mb - 0.00 in0.0 mm 0.01 in0.3 mm
12:10 PM 75.6°F24.2°C 65.6°F18.7°C 71% 6.9 mph NNE11.1 kmh NNE 11.5 mph18.5 kmh 30.10 in1019.3 mb - 0.00 in0.0 mm 0.01 in0.3 mm
12:20 PM 74.2°F23.4°C 65.0°F18.3°C 73% 1.2 mph N1.9 kmh N 11.5 mph18.5 kmh 30.10 in1019.3 mb - 0.00 in0.0 mm 0.01 in0.3 mm
12:30 PM 73.6°F23.1°C 64.4°F18.0°C 73% 1.2 mph NNE1.9 kmh NNE 3.5 mph5.6 kmh 30.10 in1019.3 mb - 0.00 in0.0 mm 0.01 in0.3 mm
12:40 PM 73.5°F23.1°C 65.1°F18.4°C 75% 1.2 mph NNE1.9 kmh NNE 1.2 mph1.9 kmh 30.09 in1019.0 mb - 0.00 in0.0 mm 0.01 in0.3 mm
12:50 PM 74.3°F23.5°C 65.9°F18.8°C 75% 6.9 mph NNE11.1 kmh NNE 9.2 mph14.8 kmh 30.09 in1019.0 mb - 0.00 in0.0 mm 0.01 in0.3 mm
01:00 PM 74.4°F23.6°C 65.6°F18.7°C 74% 6.9 mph NNE11.1 kmh NNE 18.4 mph29.6 kmh 30.09 in1019.0 mb - 0.00 in0.0 mm 0.01 in0.3 mm
01:10 PM 74.3°F23.5°C 65.1°F18.4°C 73% 3.5 mph NNE5.6 kmh NNE 3.5 mph5.6 kmh 30.09 in1019.0 mb - 0.00 in0.0 mm 0.01 in0.3 mm
01:20 PM 73.6°F23.1°C 64.0°F17.8°C 72% 6.9 mph NNE11.1 kmh NNE 8.1 mph13.0 kmh 30.09 in1019.0 mb - 0.00 in0.0 mm 0.01 in0.3 mm
01:30 PM 72.9°F22.7°C 64.1°F17.8°C 74% 8.1 mph NNE13.0 kmh NNE 11.5 mph18.5 kmh 30.09 in1019.0 mb - 0.00 in0.0 mm 0.01 in0.3 mm
01:40 PM 72.2°F22.3°C 64.9°F18.3°C 78% 6.9 mph NNE11.1 kmh NNE 11.5 mph18.5 kmh 30.10 in1019.3 mb - 0.01 in0.3 mm 0.02 in0.5 mm
01:50 PM 69.8°F21.0°C 65.4°F18.6°C 86% 6.9 mph NNE11.1 kmh NNE 8.1 mph13.0 kmh 30.09 in1019.0 mb - 0.02 in0.5 mm 0.03 in0.8 mm
02:00 PM 69.1°F20.6°C 66.0°F18.9°C 90% Calm Calm -- 30.09 in1019.0 mb - 0.00 in0.0 mm 0.03 in0.8 mm
02:10 PM 69.2°F20.7°C 66.7°F19.3°C 92% Calm Calm -- 30.09 in1019.0 mb - 0.00 in0.0 mm 0.03 in0.8 mm
02:20 PM 69.5°F20.8°C 66.8°F19.3°C 91% 3.5 mph NNE5.6 kmh NNE 6.9 mph11.1 kmh 30.09 in1019.0 mb - 0.00 in0.0 mm 0.03 in0.8 mm
02:30 PM 69.9°F21.1°C 66.8°F19.3°C 90% 2.3 mph NNE3.7 kmh NNE 6.9 mph11.1 kmh 30.08 in1018.6 mb - 0.00 in0.0 mm 0.03 in0.8 mm
02:40 PM 70.0°F21.1°C 66.6°F19.2°C 89% 2.3 mph NNE3.7 kmh NNE 4.6 mph7.4 kmh 30.08 in1018.6 mb - 0.00 in0.0 mm 0.03 in0.8 mm
02:50 PM 69.8°F21.0°C 65.4°F18.6°C 86% 1.2 mph NNE1.9 kmh NNE 3.5 mph5.6 kmh 30.08 in1018.6 mb - 0.00 in0.0 mm 0.03 in0.8 mm
03:00 PM 69.4°F20.8°C 65.0°F18.3°C 86% 1.2 mph NNE1.9 kmh NNE 4.6 mph7.4 kmh 30.08 in1018.6 mb - 0.00 in0.0 mm 0.03 in0.8 mm
03:10 PM 69.3°F20.7°C 64.9°F18.3°C 86% 2.3 mph NNE3.7 kmh NNE 6.9 mph11.1 kmh 30.08 in1018.6 mb - 0.00 in0.0 mm 0.03 in0.8 mm
03:20 PM 69.3°F20.7°C 65.3°F18.5°C 87% 1.2 mph NNE1.9 kmh NNE 4.6 mph7.4 kmh 30.08 in1018.6 mb - 0.00 in0.0 mm 0.03 in0.8 mm
03:30 PM 69.4°F20.8°C 65.0°F18.3°C 86% 1.2 mph NNE1.9 kmh NNE 11.5 mph18.5 kmh 30.08 in1018.6 mb - 0.00 in0.0 mm 0.03 in0.8 mm
03:40 PM 69.3°F20.7°C 65.0°F18.3°C 86% 2.3 mph NNE3.7 kmh NNE 3.5 mph5.6 kmh 30.08 in1018.6 mb - 0.00 in0.0 mm 0.03 in0.8 mm
03:50 PM 69.5°F20.8°C 65.1°F18.4°C 86% 1.2 mph NNE1.9 kmh NNE 4.6 mph7.4 kmh 30.08 in1018.6 mb - 0.00 in0.0 mm 0.03 in0.8 mm
04:00 PM 69.6°F20.9°C 64.9°F18.3°C 85% 2.3 mph NNE3.7 kmh NNE 2.3 mph3.7 kmh 30.08 in1018.6 mb - 0.00 in0.0 mm 0.03 in0.8 mm
04:10 PM 69.8°F21.0°C 65.1°F18.4°C 85% 3.5 mph NNE5.6 kmh NNE 6.9 mph11.1 kmh 30.08 in1018.6 mb - 0.00 in0.0 mm 0.03 in0.8 mm
04:20 PM 69.2°F20.7°C 64.2°F17.9°C 84% 2.3 mph NNE3.7 kmh NNE 4.6 mph7.4 kmh 30.08 in1018.6 mb - 0.00 in0.0 mm 0.03 in0.8 mm
04:30 PM 68.7°F20.4°C 64.0°F17.8°C 85% 2.3 mph N3.7 kmh N 3.5 mph5.6 kmh 30.09 in1019.0 mb - 0.00 in0.0 mm 0.03 in0.8 mm
04:40 PM 67.9°F19.9°C 63.6°F17.6°C 86% 1.2 mph NNE1.9 kmh NNE 2.3 mph3.7 kmh 30.09 in1019.0 mb - 0.00 in0.0 mm 0.03 in0.8 mm
04:50 PM 67.8°F19.9°C 63.8°F17.7°C 87% 1.2 mph NNE1.9 kmh NNE 6.9 mph11.1 kmh 30.09 in1019.0 mb - 0.00 in0.0 mm 0.03 in0.8 mm
05:00 PM 68.0°F20.0°C 64.3°F17.9°C 88% Calm Calm -- 30.10 in1019.3 mb - 0.00 in0.0 mm 0.03 in0.8 mm
05:10 PM 68.3°F20.2°C 64.6°F18.1°C 88% Calm Calm -- 30.10 in1019.3 mb - 0.00 in0.0 mm 0.03 in0.8 mm
05:20 PM 68.5°F20.3°C 64.8°F18.2°C 88% Calm Calm 8.1 mph13.0 kmh 30.10 in1019.3 mb - 0.00 in0.0 mm 0.03 in0.8 mm
05:30 PM 68.2°F20.1°C 64.2°F17.9°C 87% 2.3 mph NNE3.7 kmh NNE 3.5 mph5.6 kmh 30.10 in1019.3 mb - 0.00 in0.0 mm 0.03 in0.8 mm
05:40 PM 67.9°F19.9°C 63.9°F17.7°C 87% Calm Calm -- 30.10 in1019.3 mb - 0.00 in0.0 mm 0.03 in0.8 mm
05:50 PM 67.4°F19.7°C 63.4°F17.4°C 87% 3.5 mph NNE5.6 kmh NNE 4.6 mph7.4 kmh 30.10 in1019.3 mb - 0.00 in0.0 mm 0.03 in0.8 mm
06:00 PM 66.7°F19.3°C 62.7°F17.1°C 87% 2.3 mph NNE3.7 kmh NNE 4.6 mph7.4 kmh 30.10 in1019.3 mb - 0.00 in0.0 mm 0.03 in0.8 mm
06:10 PM 66.3°F19.1°C 62.3°F16.8°C 87% 1.2 mph NNE1.9 kmh NNE 3.5 mph5.6 kmh 30.10 in1019.3 mb - 0.00 in0.0 mm 0.03 in0.8 mm
06:20 PM 65.9°F18.8°C 62.3°F16.8°C 88% Calm Calm -- 30.11 in1019.6 mb - 0.00 in0.0 mm 0.03 in0.8 mm
06:30 PM 65.7°F18.7°C 62.0°F16.7°C 88% 1.2 mph NNE1.9 kmh NNE 3.5 mph5.6 kmh 30.11 in1019.6 mb - 0.00 in0.0 mm 0.03 in0.8 mm
06:40 PM 65.4°F18.6°C 62.1°F16.7°C 89% Calm Calm 2.3 mph3.7 kmh 30.12 in1020.0 mb - 0.00 in0.0 mm 0.03 in0.8 mm
06:50 PM 65.1°F18.4°C 61.8°F16.6°C 89% Calm Calm 3.5 mph5.6 kmh 30.12 in1020.0 mb - 0.00 in0.0 mm 0.03 in0.8 mm
07:00 PM 64.9°F18.3°C 61.9°F16.6°C 90% Calm Calm -- 30.12 in1020.0 mb - 0.00 in0.0 mm 0.03 in0.8 mm
07:10 PM 64.8°F18.2°C 61.8°F16.6°C 90% Calm Calm -- 30.12 in1020.0 mb - 0.00 in0.0 mm 0.03 in0.8 mm
07:20 PM 64.6°F18.1°C 62.0°F16.7°C 91% 1.2 mph NNE1.9 kmh NNE 3.5 mph5.6 kmh 30.11 in1019.6 mb - 0.00 in0.0 mm 0.03 in0.8 mm
07:30 PM 64.5°F18.1°C 61.8°F16.6°C 91% Calm Calm -- 30.12 in1020.0 mb - 0.00 in0.0 mm 0.03 in0.8 mm
07:40 PM 64.4°F18.0°C 62.0°F16.7°C 92% 1.2 mph NNE1.9 kmh NNE -- 30.12 in1020.0 mb - 0.00 in0.0 mm 0.03 in0.8 mm
07:50 PM 64.3°F17.9°C 62.2°F16.8°C 93% 3.5 mph NNE5.6 kmh NNE 3.5 mph5.6 kmh 30.12 in1020.0 mb - 0.00 in0.0 mm 0.03 in0.8 mm
08:00 PM 64.2°F17.9°C 62.1°F16.7°C 93% 2.3 mph NNE3.7 kmh NNE 6.9 mph11.1 kmh 30.13 in1020.3 mb - 0.00 in0.0 mm 0.03 in0.8 mm
08:10 PM 64.1°F17.8°C 62.1°F16.7°C 93% 1.2 mph NNE1.9 kmh NNE -- 30.14 in1020.7 mb - 0.00 in0.0 mm 0.03 in0.8 mm
08:20 PM 64.0°F17.8°C 62.0°F16.7°C 93% Calm Calm -- 30.14 in1020.7 mb - 0.00 in0.0 mm 0.03 in0.8 mm
08:30 PM 64.0°F17.8°C 61.9°F16.6°C 93% 1.2 mph NNE1.9 kmh NNE 3.5 mph5.6 kmh 30.15 in1021.0 mb - 0.00 in0.0 mm 0.03 in0.8 mm
08:40 PM 63.9°F17.7°C 61.9°F16.6°C 93% Calm Calm -- 30.15 in1021.0 mb - 0.00 in0.0 mm 0.03 in0.8 mm
08:50 PM 63.9°F17.7°C 61.8°F16.6°C 93% 2.3 mph NNE3.7 kmh NNE 3.5 mph5.6 kmh 30.15 in1021.0 mb - 0.00 in0.0 mm 0.03 in0.8 mm
09:00 PM 64.1°F17.8°C 62.4°F16.9°C 94% Calm Calm -- 30.15 in1021.0 mb - 0.06 in1.5 mm 0.09 in2.3 mm
09:10 PM 64.0°F17.8°C 62.2°F16.8°C 94% Calm Calm -- 30.15 in1021.0 mb - 0.00 in0.0 mm 0.09 in2.3 mm
09:20 PM 63.8°F17.7°C 62.1°F16.7°C 94% Calm Calm -- 30.15 in1021.0 mb - 0.00 in0.0 mm 0.09 in2.3 mm
09:30 PM 63.7°F17.6°C 62.3°F16.8°C 95% Calm Calm -- 30.16 in1021.3 mb - 0.00 in0.0 mm 0.09 in2.3 mm
09:40 PM 63.6°F17.6°C 62.2°F16.8°C 95% 1.2 mph NNE1.9 kmh NNE 3.5 mph5.6 kmh 30.15 in1021.0 mb - 0.00 in0.0 mm 0.09 in2.3 mm
09:50 PM 63.3°F17.4°C 61.8°F16.6°C 95% 2.3 mph NNE3.7 kmh NNE 3.5 mph5.6 kmh 30.15 in1021.0 mb - 0.00 in0.0 mm 0.09 in2.3 mm
10:00 PM 63.0°F17.2°C 61.5°F16.4°C 95% Calm Calm -- 30.16 in1021.3 mb - 0.00 in0.0 mm 0.09 in2.3 mm
10:10 PM 62.8°F17.1°C 61.3°F16.3°C 95% Calm Calm 3.5 mph5.6 kmh 30.15 in1021.0 mb - 0.00 in0.0 mm 0.09 in2.3 mm
10:20 PM 62.6°F17.0°C 61.1°F16.2°C 95% 2.3 mph NNE3.7 kmh NNE 3.5 mph5.6 kmh 30.15 in1021.0 mb - 0.00 in0.0 mm 0.09 in2.3 mm
10:30 PM 62.4°F16.9°C 61.0°F16.1°C 95% Calm Calm 1.2 mph1.9 kmh 30.15 in1021.0 mb - 0.00 in0.0 mm 0.09 in2.3 mm
10:40 PM 62.3°F16.8°C 61.1°F16.2°C 96% 3.5 mph NNE5.6 kmh NNE 4.6 mph7.4 kmh 30.15 in1021.0 mb - 0.00 in0.0 mm 0.09 in2.3 mm
10:50 PM 62.2°F16.8°C 61.0°F16.1°C 96% 3.5 mph NNE5.6 kmh NNE 4.6 mph7.4 kmh 30.15 in1021.0 mb - 0.00 in0.0 mm 0.09 in2.3 mm
11:00 PM 62.2°F16.8°C 61.0°F16.1°C 96% 3.5 mph NNE5.6 kmh NNE 4.6 mph7.4 kmh 30.15 in1021.0 mb - 0.00 in0.0 mm 0.10 in2.5 mm
11:10 PM 62.1°F16.7°C 60.9°F16.1°C 96% 2.3 mph NNE3.7 kmh NNE 3.5 mph5.6 kmh 30.15 in1021.0 mb - 0.00 in0.0 mm 0.10 in2.5 mm
11:20 PM 62.0°F16.7°C 60.8°F16.0°C 96% 3.5 mph NNE5.6 kmh NNE 4.6 mph7.4 kmh 30.15 in1021.0 mb - 0.00 in0.0 mm 0.10 in2.5 mm
11:30 PM 61.9°F16.6°C 60.7°F15.9°C 96% 3.5 mph NNE5.6 kmh NNE 4.6 mph7.4 kmh 30.14 in1020.7 mb - 0.00 in0.0 mm 0.10 in2.5 mm
11:40 PM 61.8°F16.6°C 60.6°F15.9°C 96% 1.2 mph NNE1.9 kmh NNE 3.5 mph5.6 kmh 30.14 in1020.7 mb - 0.00 in0.0 mm 0.10 in2.5 mm
11:50 PM 61.7°F16.5°C 60.5°F15.8°C 96% Calm Calm -- 30.14 in1020.7 mb - 0.00 in0.0 mm 0.10 in2.5 mm